Airfield :
LOGIN :

Register | Disclaimer

   EN    FR    IT 

 










Legend :    VFR   Marginal VFR   IFR   Intensive IFR   Very Intensive IFR
Visi :
Ceiling :
>= 8 km
>= 3000ft
5 to 8 km
1000 to 3000 ft
1500m to 5 km
500 to 1000 ft
800 to 1500m
200 to 500 ft
< 800m
< 200 ft
Symbols :   Thunderstorms  Fog  Heavy snow  Heavy precipitations  Wind > 20 kt
SIGMETs :     Misc.  Thunderstorms  Icing  Turbulence  Mountain Waves  Volcanic Ashes







- Airport Elevation : 646 ft
- IATA code : VNO


EYVI - Vilnius int.

CURRENT METAR :
  • 141720Z 31008KT 270V330 9999 -TSRA SCT023CB BKN081 19/18 Q1010 TEMPO VRB40KT 1000 TSGR SQ BKN015CB

EXPIRED METARs :
  • 141650Z 29017KT 9999 -TSRA BKN049CB OVC070 19/18 Q1010 TEMPO VRB40KT 1000 TSGR SQ BKN015CB
  • 141634Z 27016KT 230V290 9999 -SHRA SCT021CB OVC049 20/17 Q1010 TEMPO VRB40KT 1000 TSGR SQ BKN015CB
  • 141627Z 24018G29KT 3400 SHRA BKN045CB OVC073 21/17 Q1010 TEMPO VRB40KT 1000 TSGR SQ BKN015CB
  • 141620Z 23013G27KT 9999 -SHRA SCT045CB BKN096 24/17 Q1009 TEMPO VRB40KT 1000 TSGR SQ BKN015CB
  • 141550Z 12006KT 9999 SCT049CB BKN130 25/15 Q1008 TEMPO VRB40KT 1000 TSGR SQ BKN015CB
  • 141520Z 12006KT 9999 SCT049CB BKN140 26/15 Q1008 TEMPO VRB40KT 1000 TSGR SQ BKN015CB
  • 141450Z 11005KT 9999 SCT054CB BKN210 26/16 Q1008 TEMPO TSRA BKN040CB

TAF TAF EYVI
Valid from the 14 at 12:00 until the 15 at 12:00 UTC


141100Z 1412/1512 15010KT 9999 SCT040CB BKN050
TEMPO 1412/1414 TSRA
TEMPO 1414/1419 VRB28KT 1500 TSRA BKN018CB
BECMG 1419/1420 24008KT SCT005 BKN015
TEMPO 1420/1423 SCT020CB
TEMPO 1423/1505 BKN003
No reported NOTAMs for that airfield.
1 SIGMET reported for the Vilnius FIR (EYVL) :
 
Embedded thunderstorms and hail
EYVL SIGMET 2 VALID 141600/142000 EYVI
EYVL VILNIUS FIR/UIR EMBD TSGR OBS AT 1530Z S OF N5500 AND E OF E02300 TOP FL400 MOV NNE 10KT NC=



MET'MAP, your aeronautical weather chart ! - Copyright ORBIFLY December 2007 - Disclaimer

ORBIFLY MET'MAP TEAM :

Programming & Development : Alexandra Zaïnal
Concept & Development : Baudouin d'Aumeries
Co-Development & Prog : Marc-Olivier Méhu
Technical & hardware support : Manuel Goepfert

Contact : metmap@orbifly.com




SOURCES & CREDITS :

   NOAA